sensor_id;sensor_type;location;lat;lon;timestamp;P1;durP1;ratioP1;P2;durP2;ratioP2
11911;SDS011;6016;41.928;25.556;2023-05-29T00:00:59;7.75;;;3.90;;
11911;SDS011;6016;41.928;25.556;2023-05-29T00:03:26;7.20;;;4.28;;
11911;SDS011;6016;41.928;25.556;2023-05-29T00:05:53;7.28;;;4.20;;
11911;SDS011;6016;41.928;25.556;2023-05-29T00:08:20;6.78;;;3.97;;
11911;SDS011;6016;41.928;25.556;2023-05-29T00:10:48;7.95;;;3.95;;
11911;SDS011;6016;41.928;25.556;2023-05-29T00:13:15;10.80;;;4.20;;
11911;SDS011;6016;41.928;25.556;2023-05-29T00:15:41;9.02;;;4.20;;
11911;SDS011;6016;41.928;25.556;2023-05-29T00:18:08;7.93;;;4.18;;
11911;SDS011;6016;41.928;25.556;2023-05-29T00:20:35;6.70;;;3.83;;
11911;SDS011;6016;41.928;25.556;2023-05-29T00:23:03;8.40;;;4.28;;
11911;SDS011;6016;41.928;25.556;2023-05-29T00:25:31;6.97;;;3.75;;
11911;SDS011;6016;41.928;25.556;2023-05-29T00:27:59;6.38;;;3.70;;
11911;SDS011;6016;41.928;25.556;2023-05-29T00:30:26;6.28;;;3.72;;
11911;SDS011;6016;41.928;25.556;2023-05-29T00:32:53;6.28;;;4.05;;
11911;SDS011;6016;41.928;25.556;2023-05-29T00:35:20;5.50;;;3.55;;
11911;SDS011;6016;41.928;25.556;2023-05-29T00:37:47;8.07;;;3.83;;
11911;SDS011;6016;41.928;25.556;2023-05-29T00:40:13;6.22;;;3.53;;
11911;SDS011;6016;41.928;25.556;2023-05-29T00:42:41;7.55;;;3.90;;
11911;SDS011;6016;41.928;25.556;2023-05-29T00:45:09;6.03;;;3.55;;
11911;SDS011;6016;41.928;25.556;2023-05-29T00:47:38;5.63;;;3.47;;
11911;SDS011;6016;41.928;25.556;2023-05-29T00:50:06;6.68;;;3.95;;
11911;SDS011;6016;41.928;25.556;2023-05-29T00:52:35;5.85;;;3.53;;
11911;SDS011;6016;41.928;25.556;2023-05-29T00:55:04;7.95;;;3.38;;
11911;SDS011;6016;41.928;25.556;2023-05-29T00:57:32;6.65;;;3.95;;
11911;SDS011;6016;41.928;25.556;2023-05-29T01:00:00;8.68;;;3.75;;
11911;SDS011;6016;41.928;25.556;2023-05-29T01:05:01;8.55;;;3.60;;
11911;SDS011;6016;41.928;25.556;2023-05-29T01:07:28;6.60;;;3.83;;
11911;SDS011;6016;41.928;25.556;2023-05-29T01:09:55;11.55;;;4.43;;
11911;SDS011;6016;41.928;25.556;2023-05-29T01:12:27;8.85;;;3.85;;
11911;SDS011;6016;41.928;25.556;2023-05-29T01:15:04;6.47;;;3.80;;
11911;SDS011;6016;41.928;25.556;2023-05-29T01:17:44;8.02;;;3.80;;
11911;SDS011;6016;41.928;25.556;2023-05-29T01:20:22;7.57;;;3.45;;
11911;SDS011;6016;41.928;25.556;2023-05-29T01:23:06;7.47;;;3.78;;
11911;SDS011;6016;41.928;25.556;2023-05-29T01:28:37;6.30;;;3.63;;
11911;SDS011;6016;41.928;25.556;2023-05-29T01:31:08;5.28;;;3.38;;
11911;SDS011;6016;41.928;25.556;2023-05-29T01:33:38;6.20;;;3.70;;
11911;SDS011;6016;41.928;25.556;2023-05-29T01:36:07;6.60;;;3.55;;
11911;SDS011;6016;41.928;25.556;2023-05-29T01:38:36;9.05;;;3.85;;
11911;SDS011;6016;41.928;25.556;2023-05-29T01:41:03;6.75;;;3.30;;
11911;SDS011;6016;41.928;25.556;2023-05-29T01:43:30;7.80;;;3.60;;
11911;SDS011;6016;41.928;25.556;2023-05-29T01:45:59;6.78;;;3.17;;
11911;SDS011;6016;41.928;25.556;2023-05-29T01:48:26;5.80;;;3.17;;
11911;SDS011;6016;41.928;25.556;2023-05-29T01:50:54;6.80;;;3.33;;
11911;SDS011;6016;41.928;25.556;2023-05-29T01:53:21;6.30;;;3.13;;
11911;SDS011;6016;41.928;25.556;2023-05-29T01:55:49;5.57;;;2.88;;
11911;SDS011;6016;41.928;25.556;2023-05-29T01:58:17;5.85;;;3.00;;
11911;SDS011;6016;41.928;25.556;2023-05-29T02:00:46;5.97;;;3.53;;
11911;SDS011;6016;41.928;25.556;2023-05-29T02:03:15;5.97;;;2.97;;
11911;SDS011;6016;41.928;25.556;2023-05-29T02:05:42;6.95;;;3.42;;
11911;SDS011;6016;41.928;25.556;2023-05-29T02:08:09;8.82;;;3.55;;
11911;SDS011;6016;41.928;25.556;2023-05-29T02:10:37;5.65;;;3.33;;
11911;SDS011;6016;41.928;25.556;2023-05-29T02:13:04;7.75;;;3.55;;
11911;SDS011;6016;41.928;25.556;2023-05-29T02:15:31;7.05;;;3.42;;
11911;SDS011;6016;41.928;25.556;2023-05-29T02:17:57;6.22;;;3.65;;
11911;SDS011;6016;41.928;25.556;2023-05-29T02:20:27;6.50;;;3.60;;
11911;SDS011;6016;41.928;25.556;2023-05-29T02:22:54;5.68;;;3.60;;
11911;SDS011;6016;41.928;25.556;2023-05-29T02:25:21;7.72;;;3.72;;
11911;SDS011;6016;41.928;25.556;2023-05-29T02:27:48;5.28;;;3.22;;
11911;SDS011;6016;41.928;25.556;2023-05-29T02:30:15;10.13;;;3.92;;
11911;SDS011;6016;41.928;25.556;2023-05-29T02:32:41;5.78;;;3.80;;
11911;SDS011;6016;41.928;25.556;2023-05-29T02:35:08;6.65;;;3.60;;
11911;SDS011;6016;41.928;25.556;2023-05-29T02:37:36;9.00;;;3.95;;
11911;SDS011;6016;41.928;25.556;2023-05-29T02:40:04;9.20;;;3.63;;
11911;SDS011;6016;41.928;25.556;2023-05-29T02:42:31;8.65;;;3.72;;
11911;SDS011;6016;41.928;25.556;2023-05-29T02:44:58;4.30;;;3.33;;
11911;SDS011;6016;41.928;25.556;2023-05-29T02:47:25;10.57;;;3.45;;
11911;SDS011;6016;41.928;25.556;2023-05-29T02:49:52;8.70;;;3.60;;
11911;SDS011;6016;41.928;25.556;2023-05-29T02:52:19;8.68;;;3.63;;
11911;SDS011;6016;41.928;25.556;2023-05-29T02:54:47;5.97;;;3.30;;
11911;SDS011;6016;41.928;25.556;2023-05-29T02:57:14;5.93;;;3.22;;
11911;SDS011;6016;41.928;25.556;2023-05-29T02:59:41;5.85;;;3.60;;
11911;SDS011;6016;41.928;25.556;2023-05-29T03:02:09;6.75;;;3.80;;
11911;SDS011;6016;41.928;25.556;2023-05-29T03:04:36;7.80;;;3.65;;
11911;SDS011;6016;41.928;25.556;2023-05-29T03:07:03;9.02;;;5.38;;
11911;SDS011;6016;41.928;25.556;2023-05-29T03:09:31;6.53;;;4.15;;
11911;SDS011;6016;41.928;25.556;2023-05-29T03:12:00;7.97;;;4.57;;
11911;SDS011;6016;41.928;25.556;2023-05-29T03:14:27;6.80;;;3.60;;
11911;SDS011;6016;41.928;25.556;2023-05-29T03:16:54;8.05;;;3.83;;
11911;SDS011;6016;41.928;25.556;2023-05-29T03:19:21;5.28;;;3.53;;
11911;SDS011;6016;41.928;25.556;2023-05-29T03:21:48;7.85;;;3.50;;
11911;SDS011;6016;41.928;25.556;2023-05-29T03:24:15;7.90;;;3.78;;
11911;SDS011;6016;41.928;25.556;2023-05-29T03:26:42;5.43;;;3.70;;
11911;SDS011;6016;41.928;25.556;2023-05-29T03:29:11;5.28;;;3.40;;
11911;SDS011;6016;41.928;25.556;2023-05-29T03:31:37;5.57;;;3.47;;
11911;SDS011;6016;41.928;25.556;2023-05-29T03:34:04;7.90;;;3.50;;
11911;SDS011;6016;41.928;25.556;2023-05-29T03:36:31;7.18;;;3.75;;
11911;SDS011;6016;41.928;25.556;2023-05-29T03:38:58;7.60;;;4.65;;
11911;SDS011;6016;41.928;25.556;2023-05-29T03:41:25;9.82;;;5.18;;
11911;SDS011;6016;41.928;25.556;2023-05-29T03:43:52;8.50;;;5.10;;
11911;SDS011;6016;41.928;25.556;2023-05-29T03:46:20;12.38;;;6.25;;
11911;SDS011;6016;41.928;25.556;2023-05-29T03:48:47;9.50;;;5.10;;
11911;SDS011;6016;41.928;25.556;2023-05-29T03:51:13;6.95;;;4.25;;
11911;SDS011;6016;41.928;25.556;2023-05-29T03:53:41;7.60;;;3.58;;
11911;SDS011;6016;41.928;25.556;2023-05-29T03:56:08;11.05;;;6.05;;
11911;SDS011;6016;41.928;25.556;2023-05-29T03:58:34;9.98;;;4.50;;
11911;SDS011;6016;41.928;25.556;2023-05-29T04:01:02;10.23;;;5.70;;
11911;SDS011;6016;41.928;25.556;2023-05-29T04:03:30;11.90;;;3.75;;
11911;SDS011;6016;41.928;25.556;2023-05-29T04:05:57;5.50;;;3.83;;
11911;SDS011;6016;41.928;25.556;2023-05-29T04:08:24;9.05;;;3.78;;
11911;SDS011;6016;41.928;25.556;2023-05-29T04:10:51;6.28;;;3.72;;
11911;SDS011;6016;41.928;25.556;2023-05-29T04:13:19;8.95;;;3.88;;
11911;SDS011;6016;41.928;25.556;2023-05-29T04:15:46;7.40;;;3.85;;
11911;SDS011;6016;41.928;25.556;2023-05-29T04:18:13;8.15;;;3.70;;
11911;SDS011;6016;41.928;25.556;2023-05-29T04:20:41;6.28;;;3.83;;
11911;SDS011;6016;41.928;25.556;2023-05-29T04:23:10;10.95;;;5.72;;
11911;SDS011;6016;41.928;25.556;2023-05-29T04:25:37;7.80;;;4.90;;
11911;SDS011;6016;41.928;25.556;2023-05-29T04:28:04;8.50;;;4.78;;
11911;SDS011;6016;41.928;25.556;2023-05-29T04:30:31;11.10;;;5.85;;
11911;SDS011;6016;41.928;25.556;2023-05-29T04:32:58;7.07;;;3.65;;
11911;SDS011;6016;41.928;25.556;2023-05-29T04:35:25;5.93;;;3.60;;
11911;SDS011;6016;41.928;25.556;2023-05-29T04:37:55;7.15;;;3.85;;
11911;SDS011;6016;41.928;25.556;2023-05-29T04:40:22;6.65;;;3.97;;
11911;SDS011;6016;41.928;25.556;2023-05-29T04:42:49;8.07;;;3.53;;
11911;SDS011;6016;41.928;25.556;2023-05-29T04:45:19;7.85;;;3.90;;
11911;SDS011;6016;41.928;25.556;2023-05-29T04:47:47;6.53;;;3.88;;
11911;SDS011;6016;41.928;25.556;2023-05-29T04:50:15;6.88;;;3.83;;
11911;SDS011;6016;41.928;25.556;2023-05-29T04:52:43;5.35;;;3.58;;
11911;SDS011;6016;41.928;25.556;2023-05-29T04:55:11;5.45;;;3.92;;
11911;SDS011;6016;41.928;25.556;2023-05-29T04:57:38;7.88;;;4.45;;
11911;SDS011;6016;41.928;25.556;2023-05-29T05:00:06;7.20;;;4.20;;
11911;SDS011;6016;41.928;25.556;2023-05-29T05:02:34;8.93;;;4.30;;
11911;SDS011;6016;41.928;25.556;2023-05-29T05:05:01;6.10;;;3.83;;
11911;SDS011;6016;41.928;25.556;2023-05-29T05:07:28;5.68;;;3.97;;
11911;SDS011;6016;41.928;25.556;2023-05-29T05:09:55;8.60;;;4.20;;
11911;SDS011;6016;41.928;25.556;2023-05-29T05:12:23;6.90;;;3.92;;
11911;SDS011;6016;41.928;25.556;2023-05-29T05:14:50;7.03;;;4.10;;
11911;SDS011;6016;41.928;25.556;2023-05-29T05:17:17;6.60;;;4.38;;
11911;SDS011;6016;41.928;25.556;2023-05-29T05:19:45;5.55;;;4.07;;
11911;SDS011;6016;41.928;25.556;2023-05-29T05:22:14;6.55;;;4.28;;
11911;SDS011;6016;41.928;25.556;2023-05-29T05:24:41;7.70;;;4.28;;
11911;SDS011;6016;41.928;25.556;2023-05-29T05:27:08;8.68;;;4.18;;
11911;SDS011;6016;41.928;25.556;2023-05-29T05:29:36;5.72;;;3.63;;
11911;SDS011;6016;41.928;25.556;2023-05-29T05:32:03;9.88;;;4.00;;
11911;SDS011;6016;41.928;25.556;2023-05-29T05:34:31;5.68;;;3.70;;
11911;SDS011;6016;41.928;25.556;2023-05-29T05:36:57;5.00;;;3.60;;
11911;SDS011;6016;41.928;25.556;2023-05-29T05:39:24;7.03;;;4.20;;
11911;SDS011;6016;41.928;25.556;2023-05-29T05:41:51;6.82;;;3.50;;
11911;SDS011;6016;41.928;25.556;2023-05-29T05:44:18;5.63;;;3.83;;
11911;SDS011;6016;41.928;25.556;2023-05-29T05:46:47;8.45;;;4.18;;
11911;SDS011;6016;41.928;25.556;2023-05-29T05:49:13;6.72;;;3.72;;
11911;SDS011;6016;41.928;25.556;2023-05-29T05:51:40;8.95;;;4.30;;
11911;SDS011;6016;41.928;25.556;2023-05-29T05:54:07;7.97;;;4.18;;
11911;SDS011;6016;41.928;25.556;2023-05-29T05:56:34;7.57;;;4.25;;
11911;SDS011;6016;41.928;25.556;2023-05-29T05:59:01;8.15;;;4.40;;
11911;SDS011;6016;41.928;25.556;2023-05-29T06:01:28;9.98;;;4.53;;
11911;SDS011;6016;41.928;25.556;2023-05-29T06:03:57;12.38;;;8.32;;
11911;SDS011;6016;41.928;25.556;2023-05-29T06:06:23;12.80;;;8.40;;
11911;SDS011;6016;41.928;25.556;2023-05-29T06:08:50;8.50;;;6.40;;
11911;SDS011;6016;41.928;25.556;2023-05-29T06:11:17;11.68;;;6.50;;
11911;SDS011;6016;41.928;25.556;2023-05-29T06:13:44;10.35;;;6.63;;
11911;SDS011;6016;41.928;25.556;2023-05-29T06:16:11;11.38;;;7.07;;
11911;SDS011;6016;41.928;25.556;2023-05-29T06:18:38;9.57;;;6.70;;
11911;SDS011;6016;41.928;25.556;2023-05-29T06:21:07;9.77;;;6.68;;
11911;SDS011;6016;41.928;25.556;2023-05-29T06:23:34;9.85;;;5.60;;
11911;SDS011;6016;41.928;25.556;2023-05-29T06:26:02;7.57;;;4.30;;
11911;SDS011;6016;41.928;25.556;2023-05-29T06:28:29;7.30;;;4.78;;
11911;SDS011;6016;41.928;25.556;2023-05-29T06:30:56;7.05;;;4.50;;
11911;SDS011;6016;41.928;25.556;2023-05-29T06:33:23;8.95;;;4.90;;
11911;SDS011;6016;41.928;25.556;2023-05-29T06:35:49;8.48;;;4.70;;
11911;SDS011;6016;41.928;25.556;2023-05-29T06:38:18;6.47;;;4.53;;
11911;SDS011;6016;41.928;25.556;2023-05-29T06:40:44;9.25;;;4.75;;
11911;SDS011;6016;41.928;25.556;2023-05-29T06:43:11;8.88;;;4.72;;
11911;SDS011;6016;41.928;25.556;2023-05-29T06:45:38;7.25;;;4.60;;
11911;SDS011;6016;41.928;25.556;2023-05-29T06:48:05;6.47;;;4.53;;
11911;SDS011;6016;41.928;25.556;2023-05-29T06:50:32;10.32;;;4.68;;
11911;SDS011;6016;41.928;25.556;2023-05-29T06:53:00;7.13;;;4.60;;
11911;SDS011;6016;41.928;25.556;2023-05-29T06:55:28;6.43;;;5.07;;
11911;SDS011;6016;41.928;25.556;2023-05-29T06:57:55;8.10;;;4.35;;
11911;SDS011;6016;41.928;25.556;2023-05-29T07:00:22;7.75;;;4.10;;
11911;SDS011;6016;41.928;25.556;2023-05-29T07:02:49;7.78;;;4.57;;
11911;SDS011;6016;41.928;25.556;2023-05-29T07:05:16;13.20;;;4.47;;
11911;SDS011;6016;41.928;25.556;2023-05-29T07:07:43;9.68;;;4.45;;
11911;SDS011;6016;41.928;25.556;2023-05-29T07:10:10;7.57;;;4.03;;
11911;SDS011;6016;41.928;25.556;2023-05-29T07:12:38;8.05;;;4.68;;
11911;SDS011;6016;41.928;25.556;2023-05-29T07:15:05;6.30;;;4.45;;
11911;SDS011;6016;41.928;25.556;2023-05-29T07:17:33;10.45;;;4.25;;
11911;SDS011;6016;41.928;25.556;2023-05-29T07:19:59;8.57;;;4.75;;
11911;SDS011;6016;41.928;25.556;2023-05-29T07:22:26;6.63;;;4.20;;
11911;SDS011;6016;41.928;25.556;2023-05-29T07:24:53;6.63;;;4.30;;
11911;SDS011;6016;41.928;25.556;2023-05-29T07:27:20;6.35;;;4.35;;
11911;SDS011;6016;41.928;25.556;2023-05-29T07:29:48;7.18;;;4.25;;
11911;SDS011;6016;41.928;25.556;2023-05-29T07:32:15;6.88;;;4.40;;
11911;SDS011;6016;41.928;25.556;2023-05-29T07:34:42;5.60;;;3.72;;
11911;SDS011;6016;41.928;25.556;2023-05-29T07:37:09;5.00;;;3.70;;
11911;SDS011;6016;41.928;25.556;2023-05-29T07:39:37;6.05;;;4.03;;
11911;SDS011;6016;41.928;25.556;2023-05-29T07:42:04;6.85;;;4.40;;
11911;SDS011;6016;41.928;25.556;2023-05-29T07:44:31;5.63;;;4.32;;
11911;SDS011;6016;41.928;25.556;2023-05-29T07:47:00;7.07;;;4.20;;
11911;SDS011;6016;41.928;25.556;2023-05-29T07:49:26;6.05;;;3.92;;
11911;SDS011;6016;41.928;25.556;2023-05-29T07:51:53;8.30;;;4.10;;
11911;SDS011;6016;41.928;25.556;2023-05-29T07:54:20;7.45;;;4.00;;
11911;SDS011;6016;41.928;25.556;2023-05-29T07:56:48;7.25;;;4.10;;
11911;SDS011;6016;41.928;25.556;2023-05-29T07:59:15;6.65;;;4.18;;
11911;SDS011;6016;41.928;25.556;2023-05-29T08:01:42;5.97;;;3.65;;
11911;SDS011;6016;41.928;25.556;2023-05-29T08:04:10;8.32;;;4.40;;
11911;SDS011;6016;41.928;25.556;2023-05-29T08:06:37;7.63;;;4.13;;
11911;SDS011;6016;41.928;25.556;2023-05-29T08:09:07;7.38;;;3.80;;
11911;SDS011;6016;41.928;25.556;2023-05-29T08:11:35;7.32;;;4.35;;
11911;SDS011;6016;41.928;25.556;2023-05-29T08:14:02;6.47;;;4.22;;
11911;SDS011;6016;41.928;25.556;2023-05-29T08:16:28;10.98;;;4.07;;
11911;SDS011;6016;41.928;25.556;2023-05-29T08:18:55;6.57;;;4.00;;
11911;SDS011;6016;41.928;25.556;2023-05-29T08:21:24;6.53;;;4.22;;
11911;SDS011;6016;41.928;25.556;2023-05-29T08:23:52;7.30;;;4.20;;
11911;SDS011;6016;41.928;25.556;2023-05-29T08:26:19;7.97;;;4.00;;
11911;SDS011;6016;41.928;25.556;2023-05-29T08:28:46;5.90;;;4.13;;
11911;SDS011;6016;41.928;25.556;2023-05-29T08:31:12;5.80;;;3.95;;
11911;SDS011;6016;41.928;25.556;2023-05-29T08:33:39;5.60;;;3.88;;
11911;SDS011;6016;41.928;25.556;2023-05-29T08:36:08;7.40;;;4.18;;
11911;SDS011;6016;41.928;25.556;2023-05-29T08:38:36;6.00;;;4.28;;
11911;SDS011;6016;41.928;25.556;2023-05-29T08:41:03;5.53;;;3.90;;
11911;SDS011;6016;41.928;25.556;2023-05-29T08:43:32;6.63;;;3.67;;
11911;SDS011;6016;41.928;25.556;2023-05-29T08:46:01;6.32;;;4.07;;
11911;SDS011;6016;41.928;25.556;2023-05-29T08:48:29;7.28;;;3.97;;
11911;SDS011;6016;41.928;25.556;2023-05-29T08:50:57;7.90;;;4.30;;
11911;SDS011;6016;41.928;25.556;2023-05-29T08:53:25;5.10;;;3.85;;
11911;SDS011;6016;41.928;25.556;2023-05-29T08:55:53;8.25;;;4.07;;
11911;SDS011;6016;41.928;25.556;2023-05-29T08:58:21;6.55;;;3.90;;
11911;SDS011;6016;41.928;25.556;2023-05-29T09:00:48;5.57;;;3.88;;
11911;SDS011;6016;41.928;25.556;2023-05-29T09:03:16;6.35;;;4.03;;
11911;SDS011;6016;41.928;25.556;2023-05-29T09:05:45;6.07;;;4.00;;
11911;SDS011;6016;41.928;25.556;2023-05-29T09:08:12;6.60;;;4.03;;
11911;SDS011;6016;41.928;25.556;2023-05-29T09:10:40;12.25;;;4.35;;
11911;SDS011;6016;41.928;25.556;2023-05-29T09:13:10;7.35;;;4.07;;
11911;SDS011;6016;41.928;25.556;2023-05-29T09:15:36;5.13;;;3.70;;
11911;SDS011;6016;41.928;25.556;2023-05-29T09:18:05;6.32;;;3.83;;
11911;SDS011;6016;41.928;25.556;2023-05-29T09:20:32;5.18;;;3.60;;
11911;SDS011;6016;41.928;25.556;2023-05-29T09:23:00;7.20;;;3.80;;
11911;SDS011;6016;41.928;25.556;2023-05-29T09:25:30;25.27;;;8.38;;
11911;SDS011;6016;41.928;25.556;2023-05-29T09:27:58;5.70;;;3.60;;
11911;SDS011;6016;41.928;25.556;2023-05-29T09:30:31;5.13;;;3.90;;
11911;SDS011;6016;41.928;25.556;2023-05-29T09:33:00;15.45;;;5.03;;
11911;SDS011;6016;41.928;25.556;2023-05-29T09:35:31;5.15;;;4.05;;
11911;SDS011;6016;41.928;25.556;2023-05-29T09:37:59;10.68;;;4.63;;
11911;SDS011;6016;41.928;25.556;2023-05-29T09:40:26;4.85;;;3.42;;
11911;SDS011;6016;41.928;25.556;2023-05-29T09:42:55;8.20;;;3.28;;
11911;SDS011;6016;41.928;25.556;2023-05-29T09:45:22;5.60;;;4.03;;
11911;SDS011;6016;41.928;25.556;2023-05-29T09:47:52;5.00;;;3.63;;
11911;SDS011;6016;41.928;25.556;2023-05-29T09:50:19;6.90;;;3.83;;
11911;SDS011;6016;41.928;25.556;2023-05-29T09:52:47;4.28;;;3.55;;
11911;SDS011;6016;41.928;25.556;2023-05-29T09:55:17;5.25;;;3.28;;
11911;SDS011;6016;41.928;25.556;2023-05-29T09:57:46;4.72;;;3.20;;
11911;SDS011;6016;41.928;25.556;2023-05-29T10:00:13;6.28;;;3.40;;
11911;SDS011;6016;41.928;25.556;2023-05-29T10:02:41;5.07;;;3.55;;
11911;SDS011;6016;41.928;25.556;2023-05-29T10:05:10;5.45;;;3.50;;
11911;SDS011;6016;41.928;25.556;2023-05-29T10:07:42;11.32;;;3.80;;
11911;SDS011;6016;41.928;25.556;2023-05-29T10:10:12;4.63;;;3.30;;
11911;SDS011;6016;41.928;25.556;2023-05-29T10:12:42;5.28;;;3.55;;
11911;SDS011;6016;41.928;25.556;2023-05-29T10:15:14;5.10;;;3.13;;
11911;SDS011;6016;41.928;25.556;2023-05-29T10:17:43;5.05;;;3.55;;
11911;SDS011;6016;41.928;25.556;2023-05-29T10:20:17;6.90;;;3.35;;
11911;SDS011;6016;41.928;25.556;2023-05-29T10:22:47;5.93;;;3.53;;
11911;SDS011;6016;41.928;25.556;2023-05-29T10:25:17;5.55;;;3.97;;
11911;SDS011;6016;41.928;25.556;2023-05-29T10:27:45;6.22;;;3.97;;
11911;SDS011;6016;41.928;25.556;2023-05-29T10:30:14;4.75;;;3.20;;
11911;SDS011;6016;41.928;25.556;2023-05-29T10:32:54;6.95;;;4.03;;
11911;SDS011;6016;41.928;25.556;2023-05-29T10:35:35;5.82;;;3.28;;
11911;SDS011;6016;41.928;25.556;2023-05-29T10:38:10;8.63;;;4.00;;
11911;SDS011;6016;41.928;25.556;2023-05-29T10:40:38;6.78;;;3.80;;
11911;SDS011;6016;41.928;25.556;2023-05-29T10:43:05;8.15;;;4.28;;
11911;SDS011;6016;41.928;25.556;2023-05-29T10:45:48;8.23;;;3.90;;
11911;SDS011;6016;41.928;25.556;2023-05-29T10:51:04;6.38;;;3.90;;
11911;SDS011;6016;41.928;25.556;2023-05-29T10:53:32;6.97;;;3.47;;
11911;SDS011;6016;41.928;25.556;2023-05-29T10:55:59;6.47;;;2.95;;
11911;SDS011;6016;41.928;25.556;2023-05-29T10:58:27;6.00;;;2.40;;
11911;SDS011;6016;41.928;25.556;2023-05-29T11:00:56;3.65;;;2.30;;
11911;SDS011;6016;41.928;25.556;2023-05-29T11:03:24;6.78;;;2.72;;
11911;SDS011;6016;41.928;25.556;2023-05-29T11:05:56;8.32;;;2.50;;
11911;SDS011;6016;41.928;25.556;2023-05-29T11:08:29;12.48;;;2.97;;
11911;SDS011;6016;41.928;25.556;2023-05-29T11:10:59;10.20;;;2.90;;
11911;SDS011;6016;41.928;25.556;2023-05-29T11:13:27;11.90;;;3.75;;
11911;SDS011;6016;41.928;25.556;2023-05-29T11:19:03;12.13;;;3.58;;
11911;SDS011;6016;41.928;25.556;2023-05-29T11:21:34;10.80;;;4.00;;
11911;SDS011;6016;41.928;25.556;2023-05-29T11:24:20;19.77;;;5.20;;
11911;SDS011;6016;41.928;25.556;2023-05-29T11:29:17;11.55;;;4.07;;
11911;SDS011;6016;41.928;25.556;2023-05-29T11:31:48;10.48;;;4.00;;
11911;SDS011;6016;41.928;25.556;2023-05-29T11:34:21;9.23;;;4.20;;
11911;SDS011;6016;41.928;25.556;2023-05-29T11:36:51;11.70;;;4.43;;
11911;SDS011;6016;41.928;25.556;2023-05-29T11:39:19;9.65;;;4.25;;
11911;SDS011;6016;41.928;25.556;2023-05-29T11:41:49;8.50;;;4.07;;
11911;SDS011;6016;41.928;25.556;2023-05-29T11:44:18;9.27;;;4.47;;
11911;SDS011;6016;41.928;25.556;2023-05-29T11:46:45;12.55;;;5.00;;
11911;SDS011;6016;41.928;25.556;2023-05-29T11:49:11;7.57;;;4.47;;
11911;SDS011;6016;41.928;25.556;2023-05-29T11:51:41;10.43;;;4.57;;
11911;SDS011;6016;41.928;25.556;2023-05-29T11:54:08;10.27;;;4.45;;
11911;SDS011;6016;41.928;25.556;2023-05-29T11:56:39;10.63;;;4.28;;
11911;SDS011;6016;41.928;25.556;2023-05-29T11:59:10;9.82;;;4.45;;
11911;SDS011;6016;41.928;25.556;2023-05-29T12:01:37;13.05;;;4.97;;
11911;SDS011;6016;41.928;25.556;2023-05-29T12:04:13;7.55;;;4.63;;
11911;SDS011;6016;41.928;25.556;2023-05-29T12:06:40;8.60;;;4.22;;
11911;SDS011;6016;41.928;25.556;2023-05-29T12:09:07;9.00;;;5.10;;
11911;SDS011;6016;41.928;25.556;2023-05-29T12:11:34;10.13;;;4.72;;
11911;SDS011;6016;41.928;25.556;2023-05-29T12:14:02;9.90;;;4.47;;
11911;SDS011;6016;41.928;25.556;2023-05-29T12:16:29;11.00;;;4.50;;
11911;SDS011;6016;41.928;25.556;2023-05-29T12:18:58;10.20;;;5.00;;
11911;SDS011;6016;41.928;25.556;2023-05-29T12:21:26;11.60;;;5.15;;
11911;SDS011;6016;41.928;25.556;2023-05-29T12:23:53;11.48;;;5.82;;
11911;SDS011;6016;41.928;25.556;2023-05-29T12:26:21;10.38;;;5.30;;
11911;SDS011;6016;41.928;25.556;2023-05-29T12:28:49;9.88;;;5.22;;
11911;SDS011;6016;41.928;25.556;2023-05-29T12:31:27;8.38;;;5.10;;
11911;SDS011;6016;41.928;25.556;2023-05-29T12:33:58;10.90;;;4.72;;
11911;SDS011;6016;41.928;25.556;2023-05-29T12:36:26;8.57;;;5.07;;
11911;SDS011;6016;41.928;25.556;2023-05-29T12:38:53;12.25;;;5.00;;
11911;SDS011;6016;41.928;25.556;2023-05-29T12:41:26;13.50;;;5.35;;
11911;SDS011;6016;41.928;25.556;2023-05-29T12:43:54;8.98;;;5.20;;
11911;SDS011;6016;41.928;25.556;2023-05-29T12:46:22;10.40;;;5.07;;
11911;SDS011;6016;41.928;25.556;2023-05-29T12:48:52;11.10;;;5.20;;
11911;SDS011;6016;41.928;25.556;2023-05-29T12:51:22;10.88;;;5.72;;
11911;SDS011;6016;41.928;25.556;2023-05-29T12:53:49;9.90;;;5.40;;
11911;SDS011;6016;41.928;25.556;2023-05-29T12:56:19;8.75;;;5.18;;
11911;SDS011;6016;41.928;25.556;2023-05-29T12:58:47;10.15;;;5.55;;
11911;SDS011;6016;41.928;25.556;2023-05-29T13:01:14;11.93;;;5.28;;
11911;SDS011;6016;41.928;25.556;2023-05-29T13:03:41;9.63;;;5.63;;
11911;SDS011;6016;41.928;25.556;2023-05-29T13:06:09;10.20;;;6.10;;
11911;SDS011;6016;41.928;25.556;2023-05-29T13:08:36;11.20;;;6.45;;
11911;SDS011;6016;41.928;25.556;2023-05-29T13:11:03;12.13;;;6.78;;
11911;SDS011;6016;41.928;25.556;2023-05-29T13:13:30;11.13;;;6.25;;
11911;SDS011;6016;41.928;25.556;2023-05-29T13:15:57;10.05;;;6.60;;
11911;SDS011;6016;41.928;25.556;2023-05-29T13:18:24;12.05;;;6.90;;
11911;SDS011;6016;41.928;25.556;2023-05-29T13:20:51;10.05;;;5.60;;
11911;SDS011;6016;41.928;25.556;2023-05-29T13:23:19;7.00;;;4.68;;
11911;SDS011;6016;41.928;25.556;2023-05-29T13:25:46;8.68;;;4.20;;
11911;SDS011;6016;41.928;25.556;2023-05-29T13:28:14;6.30;;;4.25;;
11911;SDS011;6016;41.928;25.556;2023-05-29T13:30:41;9.00;;;4.65;;
11911;SDS011;6016;41.928;25.556;2023-05-29T13:33:08;6.22;;;4.35;;
11911;SDS011;6016;41.928;25.556;2023-05-29T13:35:35;7.82;;;4.45;;
11911;SDS011;6016;41.928;25.556;2023-05-29T13:38:02;7.35;;;4.55;;
11911;SDS011;6016;41.928;25.556;2023-05-29T13:40:30;6.63;;;4.70;;
11911;SDS011;6016;41.928;25.556;2023-05-29T13:42:57;7.65;;;4.68;;
11911;SDS011;6016;41.928;25.556;2023-05-29T13:45:24;7.13;;;5.30;;
11911;SDS011;6016;41.928;25.556;2023-05-29T13:47:53;9.50;;;6.03;;
11911;SDS011;6016;41.928;25.556;2023-05-29T13:50:20;10.30;;;5.70;;
11911;SDS011;6016;41.928;25.556;2023-05-29T13:52:48;10.00;;;5.22;;
11911;SDS011;6016;41.928;25.556;2023-05-29T13:55:15;7.60;;;5.05;;
11911;SDS011;6016;41.928;25.556;2023-05-29T13:57:43;10.63;;;5.70;;
11911;SDS011;6016;41.928;25.556;2023-05-29T14:00:11;8.70;;;5.78;;
11911;SDS011;6016;41.928;25.556;2023-05-29T14:02:38;9.45;;;6.00;;
11911;SDS011;6016;41.928;25.556;2023-05-29T14:05:05;9.40;;;5.28;;
11911;SDS011;6016;41.928;25.556;2023-05-29T14:07:33;7.28;;;5.30;;
11911;SDS011;6016;41.928;25.556;2023-05-29T14:10:00;9.80;;;6.25;;
11911;SDS011;6016;41.928;25.556;2023-05-29T14:12:26;8.27;;;5.40;;
11911;SDS011;6016;41.928;25.556;2023-05-29T14:14:55;9.23;;;5.90;;
11911;SDS011;6016;41.928;25.556;2023-05-29T14:17:21;7.88;;;5.30;;
11911;SDS011;6016;41.928;25.556;2023-05-29T14:19:48;10.80;;;6.07;;
11911;SDS011;6016;41.928;25.556;2023-05-29T14:22:15;9.40;;;5.90;;
11911;SDS011;6016;41.928;25.556;2023-05-29T14:24:42;9.77;;;5.70;;
11911;SDS011;6016;41.928;25.556;2023-05-29T14:27:10;8.88;;;6.35;;
11911;SDS011;6016;41.928;25.556;2023-05-29T14:29:36;9.85;;;6.43;;
11911;SDS011;6016;41.928;25.556;2023-05-29T14:32:05;9.82;;;6.47;;
11911;SDS011;6016;41.928;25.556;2023-05-29T14:34:32;10.68;;;6.78;;
11911;SDS011;6016;41.928;25.556;2023-05-29T14:36:59;11.60;;;6.68;;
11911;SDS011;6016;41.928;25.556;2023-05-29T14:39:26;10.00;;;6.32;;
11911;SDS011;6016;41.928;25.556;2023-05-29T14:41:53;10.68;;;6.93;;
11911;SDS011;6016;41.928;25.556;2023-05-29T14:44:19;10.13;;;7.07;;
11911;SDS011;6016;41.928;25.556;2023-05-29T14:46:46;11.18;;;6.85;;
11911;SDS011;6016;41.928;25.556;2023-05-29T14:49:14;10.73;;;6.35;;
11911;SDS011;6016;41.928;25.556;2023-05-29T14:51:41;9.27;;;4.78;;
11911;SDS011;6016;41.928;25.556;2023-05-29T14:54:09;7.57;;;5.38;;
11911;SDS011;6016;41.928;25.556;2023-05-29T14:56:37;8.32;;;6.05;;
11911;SDS011;6016;41.928;25.556;2023-05-29T14:59:03;9.77;;;5.05;;
11911;SDS011;6016;41.928;25.556;2023-05-29T15:01:30;7.78;;;4.97;;
11911;SDS011;6016;41.928;25.556;2023-05-29T15:03:57;8.57;;;5.20;;